Captain Cook, Hawaii
Current Conditions -  °F | °C
As of 4:53 PM on Thursday 25 Dec 2014 (Local Time) from PHKO Reporting Station
Clear Clear  
Wind Chill: 79°   Ceiling: Unl
Heat Index: 81°   Visibility: 10mi
Dew Point: 63°   Wind: 8mph
Humidity: 58%   Direction: 240°WSW
Pressure: 29.75"   Gusts: NA
Location:  19.49°N, 155.91°W
Report Text: PHKO 260253Z 24007KT 10SM CLR 26/17 A2975 RMK AO2 SLP075 T02610172 53006
Loading
Personal Weather Stations






























Interactive Weather Map New forecast layout! Learn more

10-Day Weather Forecast

Advertisements
Track Severe Weather on mobile